createdAt,value
2018-11-05T00:00:21.706Z,18.57
2018-11-05T00:02:52.653Z,18.49
2018-11-05T00:05:20.443Z,18.39
2018-11-05T00:07:48.261Z,17.99
2018-11-05T00:10:16.455Z,17.99
2018-11-05T00:12:44.539Z,18.11
2018-11-05T00:15:12.146Z,18.25
2018-11-05T00:17:40.036Z,17.86
2018-11-05T00:20:08.623Z,18.03
2018-11-05T00:22:35.816Z,18.05
2018-11-05T00:25:03.482Z,18.06
2018-11-05T00:27:30.371Z,18.23
2018-11-05T00:29:57.917Z,18.16
2018-11-05T00:32:26.926Z,18.32
2018-11-05T00:34:53.616Z,18.33
2018-11-05T00:37:20.199Z,18.57
2018-11-05T00:39:48.207Z,18.34
2018-11-05T00:42:15.794Z,18.01
2018-11-05T00:44:42.626Z,18.07
2018-11-05T00:47:11.061Z,18.03
2018-11-05T00:49:38.521Z,18.05
2018-11-05T00:52:07.404Z,17.92
2018-11-05T00:54:34.237Z,17.81
2018-11-05T00:57:03.432Z,17.90
2018-11-05T00:59:31.602Z,18.09
2018-11-05T01:01:58.902Z,18.20
2018-11-05T01:04:25.965Z,18.24
2018-11-05T01:06:53.480Z,18.35
2018-11-05T01:09:20.936Z,18.17
2018-11-05T01:11:47.633Z,17.96
2018-11-05T01:14:15.265Z,18.00
2018-11-05T01:16:45.151Z,18.26
2018-11-05T01:19:12.020Z,18.51
2018-11-05T01:21:41.183Z,18.38
2018-11-05T01:24:08.655Z,18.42
2018-11-05T01:26:37.811Z,18.33
2018-11-05T01:29:05.250Z,18.34
2018-11-05T01:34:15.437Z,18.35
2018-11-05T01:36:42.267Z,18.31
2018-11-05T01:39:09.045Z,18.41
2018-11-05T01:41:36.291Z,18.31
2018-11-05T01:44:03.561Z,18.30
2018-11-05T01:46:31.403Z,18.10
2018-11-05T01:48:58.916Z,18.09
2018-11-05T01:51:25.906Z,18.17
2018-11-05T01:53:52.593Z,18.22
2018-11-05T01:56:19.181Z,18.23
2018-11-05T01:58:46.197Z,18.21
2018-11-05T02:01:13.250Z,17.98
2018-11-05T02:03:40.554Z,17.91
2018-11-05T02:06:08.000Z,18.01
2018-11-05T02:08:35.320Z,18.12
2018-11-05T02:11:02.367Z,18.43
2018-11-05T02:13:29.946Z,18.70
2018-11-05T02:15:57.327Z,18.59
2018-11-05T02:18:24.234Z,18.49
2018-11-05T02:20:51.286Z,18.37
2018-11-05T02:23:19.058Z,18.37
2018-11-05T02:25:45.767Z,18.22
2018-11-05T02:28:12.402Z,18.09
2018-11-05T02:30:38.922Z,18.11
2018-11-05T02:33:05.450Z,18.01
2018-11-05T02:35:32.291Z,18.07
2018-11-05T02:37:59.014Z,18.02
2018-11-05T02:40:26.047Z,18.00
2018-11-05T02:42:52.833Z,17.98
2018-11-05T02:45:19.407Z,17.84
2018-11-05T02:47:46.655Z,17.83
2018-11-05T02:50:13.535Z,17.85
2018-11-05T02:52:40.887Z,17.92
2018-11-05T02:55:07.376Z,17.75
2018-11-05T02:57:33.926Z,17.95
2018-11-05T03:00:00.470Z,17.85
2018-11-05T03:02:26.995Z,17.86
2018-11-05T03:04:53.525Z,17.97
2018-11-05T03:07:20.309Z,17.84
2018-11-05T03:09:47.261Z,17.79
2018-11-05T03:12:14.477Z,17.85
2018-11-05T03:14:41.177Z,17.73
2018-11-05T03:17:08.655Z,17.63
2018-11-05T03:19:35.201Z,17.75
2018-11-05T03:22:01.701Z,17.94
2018-11-05T03:24:29.334Z,18.15
2018-11-05T03:26:55.951Z,18.26
2018-11-05T03:29:22.511Z,18.05
2018-11-05T03:31:50.028Z,17.81
2018-11-05T03:34:16.516Z,17.90
2018-11-05T03:36:42.986Z,18.00
2018-11-05T03:39:09.492Z,18.14
2018-11-05T03:41:35.965Z,18.25
2018-11-05T03:44:02.489Z,18.14
2018-11-05T03:46:29.081Z,18.13
2018-11-05T03:48:56.015Z,17.98
2018-11-05T03:51:22.607Z,17.96
2018-11-05T03:53:49.377Z,17.78
2018-11-05T03:56:16.061Z,17.92
2018-11-05T03:58:42.559Z,17.90
2018-11-05T04:01:09.080Z,17.98
2018-11-05T04:03:35.987Z,18.05
2018-11-05T04:06:02.572Z,18.00
2018-11-05T04:08:29.466Z,17.98
2018-11-05T04:10:55.964Z,18.15
2018-11-05T04:13:22.449Z,18.16
2018-11-05T04:15:49.206Z,18.21
2018-11-05T04:18:15.844Z,18.08
2018-11-05T04:20:42.894Z,18.13
2018-11-05T04:23:11.832Z,18.09
2018-11-05T04:25:42.400Z,17.80
2018-11-05T04:28:09.240Z,17.72
2018-11-05T04:30:36.048Z,17.40
2018-11-05T04:33:03.657Z,17.44
2018-11-05T04:35:32.029Z,17.57
2018-11-05T04:38:00.183Z,17.60
2018-11-05T04:40:27.671Z,17.72
2018-11-05T04:42:55.150Z,17.69
2018-11-05T04:45:23.319Z,17.82
2018-11-05T04:47:51.784Z,17.76
2018-11-05T04:50:20.116Z,17.97
2018-11-05T04:52:46.992Z,18.17
2018-11-05T04:55:14.227Z,17.91
2018-11-05T04:57:41.186Z,17.81
2018-11-05T05:00:09.809Z,18.09
2018-11-05T05:02:37.775Z,17.64
2018-11-05T05:05:05.320Z,17.42
2018-11-05T05:07:32.821Z,17.66
2018-11-05T05:10:00.686Z,17.65
2018-11-05T05:12:28.104Z,17.73
2018-11-05T05:14:55.621Z,17.84
2018-11-05T05:17:23.114Z,17.88
2018-11-05T05:19:50.993Z,17.97
2018-11-05T05:22:19.404Z,17.85
2018-11-05T05:24:46.845Z,17.74
2018-11-05T05:27:15.924Z,17.88
2018-11-05T05:29:45.577Z,17.87
2018-11-05T05:32:14.735Z,17.90
2018-11-05T05:34:42.166Z,17.71
2018-11-05T05:37:09.649Z,17.77
2018-11-05T05:39:37.453Z,17.66
2018-11-05T05:42:05.591Z,17.63
2018-11-05T05:44:32.425Z,17.64
2018-11-05T05:46:59.753Z,17.83
2018-11-05T05:49:27.867Z,17.80
2018-11-05T05:51:56.383Z,17.65
2018-11-05T05:54:24.851Z,17.57
2018-11-05T05:56:52.464Z,17.83
2018-11-05T05:59:19.186Z,17.68
2018-11-05T06:01:46.729Z,17.65
2018-11-05T06:04:14.357Z,17.74
2018-11-05T06:06:41.918Z,17.67
2018-11-05T06:09:10.734Z,17.70
2018-11-05T06:11:38.307Z,17.62
2018-11-05T06:14:06.652Z,17.41
2018-11-05T06:16:35.091Z,17.37
2018-11-05T06:19:02.471Z,17.38
2018-11-05T06:21:29.612Z,17.43
2018-11-05T06:23:57.953Z,17.47
2018-11-05T06:26:25.695Z,17.50
2018-11-05T06:28:53.629Z,17.78
2018-11-05T06:31:23.582Z,17.95
2018-11-05T06:33:52.692Z,17.93
2018-11-05T06:36:22.076Z,17.94
2018-11-05T06:38:49.270Z,17.90
2018-11-05T06:41:17.573Z,17.76
2018-11-05T06:43:45.302Z,17.36
2018-11-05T06:46:14.172Z,17.17
2018-11-05T06:51:15.376Z,17.62
2018-11-05T06:53:42.117Z,17.54
2018-11-05T06:56:09.722Z,17.28
2018-11-05T06:58:39.065Z,17.58
2018-11-05T07:01:06.907Z,17.77
2018-11-05T07:03:34.187Z,17.65
2018-11-05T07:06:01.291Z,17.68
2018-11-05T07:08:30.059Z,17.65
2018-11-05T07:10:59.181Z,17.45
2018-11-05T07:13:26.867Z,17.51
2018-11-05T07:15:54.566Z,17.44
2018-11-05T07:18:23.155Z,17.72
2018-11-05T07:20:50.119Z,17.68
2018-11-05T07:23:18.212Z,17.32
2018-11-05T07:25:46.720Z,17.16
2018-11-05T07:28:16.324Z,17.17
2018-11-05T07:30:44.124Z,17.37
2018-11-05T07:33:16.232Z,17.73
2018-11-05T07:35:46.382Z,17.95
2018-11-05T07:38:14.430Z,17.74
2018-11-05T07:40:41.722Z,17.68
2018-11-05T07:43:11.743Z,17.81
2018-11-05T07:48:11.609Z,18.24
2018-11-05T07:50:41.328Z,17.87
2018-11-05T07:53:09.842Z,17.61
2018-11-05T07:55:39.527Z,17.47
2018-11-05T07:58:08.338Z,17.29
2018-11-05T08:00:37.054Z,17.32
2018-11-05T08:03:06.186Z,17.34
2018-11-05T08:05:33.826Z,17.49
2018-11-05T08:08:02.570Z,17.64
2018-11-05T08:10:29.967Z,18.03
2018-11-05T08:12:58.762Z,18.36
2018-11-05T08:15:25.774Z,18.39
2018-11-05T08:17:54.021Z,18.36
2018-11-05T08:20:21.986Z,18.45
2018-11-05T08:22:50.054Z,18.59
2018-11-05T08:25:18.065Z,18.16
2018-11-05T08:27:46.920Z,18.12
2018-11-05T08:32:46.424Z,18.78
2018-11-05T08:35:14.260Z,18.63
2018-11-05T08:37:42.553Z,18.78
2018-11-05T08:42:44.796Z,19.31
2018-11-05T08:45:15.365Z,19.10
2018-11-05T08:47:43.738Z,18.88
2018-11-05T08:50:11.244Z,19.23
2018-11-05T08:52:41.111Z,19.48
2018-11-05T08:55:09.864Z,19.11
2018-11-05T08:57:40.763Z,19.16
2018-11-05T09:00:10.980Z,18.92
2018-11-05T09:02:40.104Z,18.92
2018-11-05T09:05:07.526Z,18.74
2018-11-05T09:07:36.140Z,19.02
2018-11-05T09:10:04.619Z,19.50
2018-11-05T09:12:33.671Z,19.29
2018-11-05T09:17:33.626Z,18.90
2018-11-05T09:20:01.228Z,18.85
2018-11-05T09:22:30.081Z,18.97
2018-11-05T09:24:57.757Z,18.95
2018-11-05T09:27:29.654Z,19.09
2018-11-05T09:29:56.924Z,19.07
2018-11-05T09:32:26.495Z,19.26
2018-11-05T09:35:01.584Z,19.17
2018-11-05T09:37:30.663Z,19.65
2018-11-05T09:40:00.235Z,19.55
2018-11-05T09:42:27.408Z,19.35
2018-11-05T09:44:54.603Z,19.64
2018-11-05T09:47:22.011Z,19.72
2018-11-05T09:49:50.544Z,19.32
2018-11-05T09:52:19.464Z,19.48
2018-11-05T09:54:48.068Z,19.37
2018-11-05T09:57:18.158Z,19.49
2018-11-05T09:59:48.682Z,19.81
2018-11-05T10:02:19.834Z,19.75
2018-11-05T10:04:50.091Z,19.88
2018-11-05T10:07:19.677Z,19.64
2018-11-05T10:09:48.904Z,19.54
2018-11-05T10:12:16.939Z,19.78
2018-11-05T10:14:44.736Z,19.99
2018-11-05T10:17:14.966Z,20.17
2018-11-05T10:19:42.170Z,20.30
2018-11-05T10:24:41.367Z,20.00
2018-11-05T10:27:09.679Z,19.75
2018-11-05T10:29:38.055Z,20.19
2018-11-05T10:32:06.480Z,20.40
2018-11-05T10:34:35.065Z,20.06
2018-11-05T10:37:01.818Z,20.18
2018-11-05T10:39:29.379Z,20.25
2018-11-05T10:41:57.065Z,20.28
2018-11-05T10:44:24.550Z,20.57
2018-11-05T10:46:54.113Z,20.54
2018-11-05T10:49:22.190Z,20.75
2018-11-05T10:51:50.083Z,20.84
2018-11-05T10:54:20.508Z,20.68
2018-11-05T10:56:50.057Z,20.54
2018-11-05T10:59:19.575Z,20.51
2018-11-05T11:01:49.311Z,20.33
2018-11-05T11:04:18.155Z,20.06
2018-11-05T11:06:50.152Z,20.16
2018-11-05T11:09:18.648Z,20.27
2018-11-05T11:11:46.288Z,20.60
2018-11-05T11:14:14.992Z,20.66
2018-11-05T11:16:44.763Z,20.69
2018-11-05T11:19:12.951Z,20.64
2018-11-05T11:21:42.841Z,20.42
2018-11-05T11:24:11.674Z,19.90
2018-11-05T11:26:39.558Z,20.26
2018-11-05T11:29:07.605Z,20.23
2018-11-05T11:31:35.015Z,20.45
2018-11-05T11:34:03.254Z,20.37
2018-11-05T11:36:33.113Z,20.21
2018-11-05T11:39:00.285Z,20.04
2018-11-05T11:41:28.903Z,20.02
2018-11-05T11:43:58.306Z,20.20
2018-11-05T11:46:26.972Z,20.11
2018-11-05T11:48:54.701Z,20.13
2018-11-05T11:51:22.750Z,20.19
2018-11-05T11:53:51.340Z,20.06
2018-11-05T11:58:56.313Z,20.25
2018-11-05T12:01:23.964Z,20.53
2018-11-05T12:03:52.886Z,20.31
2018-11-05T12:06:27.700Z,20.46
2018-11-05T12:08:55.802Z,20.41
2018-11-05T12:11:24.516Z,20.04
2018-11-05T12:13:51.731Z,20.44
2018-11-05T12:16:23.086Z,20.12
2018-11-05T12:18:50.212Z,20.23
2018-11-05T12:21:18.892Z,20.18
2018-11-05T12:23:48.164Z,20.09
2018-11-05T12:26:16.854Z,20.32
2018-11-05T12:28:45.389Z,20.14
2018-11-05T12:31:16.157Z,20.02
2018-11-05T12:33:44.464Z,19.98
2018-11-05T12:36:13.061Z,19.96
2018-11-05T12:41:13.498Z,20.39
2018-11-05T12:43:42.059Z,20.32
2018-11-05T12:46:12.189Z,20.10
2018-11-05T12:48:40.372Z,20.08
2018-11-05T12:51:09.847Z,20.11
2018-11-05T12:53:38.772Z,20.00
2018-11-05T12:56:07.840Z,20.16
2018-11-05T12:58:36.587Z,20.49
2018-11-05T13:01:05.677Z,20.10
2018-11-05T13:03:33.452Z,19.93
2018-11-05T13:06:01.128Z,19.76
2018-11-05T13:08:29.894Z,20.21
2018-11-05T13:10:58.548Z,19.82
2018-11-05T13:13:27.643Z,19.56
2018-11-05T13:15:54.992Z,19.61
2018-11-05T13:18:23.534Z,19.73
2018-11-05T13:20:50.532Z,19.75
2018-11-05T13:23:19.023Z,20.00
2018-11-05T13:25:46.501Z,20.09
2018-11-05T13:28:15.139Z,20.04
2018-11-05T13:30:44.010Z,19.80
2018-11-05T13:33:12.852Z,19.37
2018-11-05T13:35:41.626Z,19.47
2018-11-05T13:38:10.458Z,19.67
2018-11-05T13:40:40.980Z,19.97
2018-11-05T13:43:09.316Z,20.29
2018-11-05T13:45:38.143Z,20.26
2018-11-05T13:50:38.261Z,20.13
2018-11-05T13:53:07.460Z,20.24
2018-11-05T13:55:35.989Z,20.15
2018-11-05T13:58:04.984Z,19.84
2018-11-05T14:00:33.237Z,19.58
2018-11-05T14:03:01.608Z,19.65
2018-11-05T14:05:29.922Z,19.52
2018-11-05T14:07:57.991Z,19.58
2018-11-05T14:10:26.464Z,19.75
2018-11-05T14:12:55.108Z,19.73
2018-11-05T14:15:24.415Z,20.08
2018-11-05T14:17:54.511Z,19.91
2018-11-05T14:20:22.988Z,19.97
2018-11-05T14:22:51.177Z,19.70
2018-11-05T14:25:21.944Z,19.58
2018-11-05T14:27:54.004Z,19.67
2018-11-05T14:30:21.880Z,19.93
2018-11-05T14:32:49.900Z,19.71
2018-11-05T14:35:21.243Z,19.80
2018-11-05T14:37:49.351Z,19.81
2018-11-05T14:42:50.655Z,19.51
2018-11-05T14:45:19.195Z,19.59
2018-11-05T14:47:47.169Z,19.76
2018-11-05T14:52:46.401Z,19.40
2018-11-05T14:55:14.871Z,19.42
2018-11-05T14:57:42.025Z,19.50
2018-11-05T15:00:11.276Z,19.36
2018-11-05T15:05:11.599Z,19.02
2018-11-05T15:07:40.198Z,18.57
2018-11-05T15:10:09.066Z,18.76
2018-11-05T15:12:36.571Z,18.93
2018-11-05T15:15:04.388Z,19.05
2018-11-05T15:17:34.101Z,19.33
2018-11-05T15:20:04.050Z,19.29
2018-11-05T15:22:33.028Z,19.42
2018-11-05T15:25:02.534Z,19.52
2018-11-05T15:30:07.787Z,19.21
2018-11-05T15:32:35.115Z,19.11
2018-11-05T15:35:02.734Z,19.20
2018-11-05T15:37:31.721Z,19.13
2018-11-05T15:39:59.233Z,19.02
2018-11-05T15:42:27.809Z,19.23
2018-11-05T15:44:56.242Z,19.28
2018-11-05T15:47:30.509Z,19.26
2018-11-05T15:49:59.800Z,19.31
2018-11-05T15:52:29.581Z,19.31
2018-11-05T15:54:56.978Z,19.35
2018-11-05T15:57:25.352Z,19.28
2018-11-05T15:59:56.486Z,19.13
2018-11-05T16:02:24.048Z,18.95
2018-11-05T16:04:52.347Z,18.73
2018-11-05T16:14:56.763Z,18.87
2018-11-05T16:17:28.303Z,18.89
2018-11-05T16:22:36.598Z,18.98
2018-11-05T16:25:05.219Z,18.77
2018-11-05T16:27:33.099Z,18.78
2018-11-05T16:30:00.991Z,18.65
2018-11-05T16:32:29.151Z,18.73
2018-11-05T16:35:00.459Z,18.70
2018-11-05T16:37:28.823Z,18.64
2018-11-05T16:39:55.711Z,18.55
2018-11-05T16:42:24.134Z,18.65
2018-11-05T16:44:51.808Z,18.56
2018-11-05T16:47:22.503Z,18.53
2018-11-05T16:49:53.301Z,18.58
2018-11-05T16:52:23.557Z,18.81
2018-11-05T16:54:51.601Z,18.94
2018-11-05T16:57:18.623Z,18.98
2018-11-05T16:59:46.322Z,18.98
2018-11-05T17:02:14.823Z,18.95
2018-11-05T17:04:44.072Z,18.85
2018-11-05T17:07:11.015Z,18.88
2018-11-05T17:09:38.798Z,18.79
2018-11-05T17:12:06.335Z,18.82
2018-11-05T17:14:34.535Z,18.81
2018-11-05T17:17:02.976Z,18.82
2018-11-05T17:19:32.901Z,18.80
2018-11-05T17:22:01.192Z,18.55
2018-11-05T17:24:29.229Z,18.65
2018-11-05T17:26:57.661Z,18.68
2018-11-05T17:31:57.896Z,18.96
2018-11-05T17:34:24.974Z,19.13
2018-11-05T17:36:52.388Z,19.18
2018-11-05T17:39:22.268Z,18.95
2018-11-05T17:41:50.538Z,18.69
2018-11-05T17:44:18.098Z,18.43
2018-11-05T17:49:19.358Z,18.41
2018-11-05T17:51:45.922Z,18.62
2018-11-05T17:54:14.200Z,18.90
2018-11-05T17:56:40.958Z,18.74
2018-11-05T17:59:09.130Z,18.50
2018-11-05T18:01:36.717Z,18.63
2018-11-05T18:04:04.591Z,18.98
2018-11-05T18:06:32.637Z,19.13
2018-11-05T18:09:01.204Z,19.13
2018-11-05T18:11:30.220Z,19.04
2018-11-05T18:13:57.886Z,19.28
2018-11-05T18:16:25.469Z,18.52
2018-11-05T18:18:52.889Z,18.51
2018-11-05T18:21:20.643Z,18.59
2018-11-05T18:23:47.630Z,18.51
2018-11-05T18:26:14.899Z,18.60
2018-11-05T18:28:41.395Z,18.64
2018-11-05T18:31:09.895Z,18.88
2018-11-05T18:33:39.362Z,18.48
2018-11-05T18:36:06.416Z,18.13
2018-11-05T18:38:34.856Z,18.17
2018-11-05T18:41:04.453Z,17.87
2018-11-05T18:43:32.510Z,17.87
2018-11-05T18:46:00.277Z,18.17
2018-11-05T18:48:29.098Z,18.06
2018-11-05T18:50:57.255Z,18.02
2018-11-05T18:53:25.375Z,18.00
2018-11-05T18:55:53.388Z,18.20
2018-11-05T18:58:21.551Z,18.50
2018-11-05T19:00:48.629Z,18.54
2018-11-05T19:03:16.188Z,18.43
2018-11-05T19:05:43.781Z,18.27
2018-11-05T19:08:11.651Z,18.26
2018-11-05T19:13:10.659Z,17.88
2018-11-05T19:15:38.457Z,18.00
2018-11-05T19:18:06.131Z,17.58
2018-11-05T19:20:35.585Z,17.55
2018-11-05T19:23:04.178Z,17.69
2018-11-05T19:25:34.016Z,18.00
2018-11-05T19:28:02.851Z,17.75
2018-11-05T19:30:30.658Z,17.93
2018-11-05T19:33:01.349Z,17.87
2018-11-05T19:35:29.665Z,18.10
2018-11-05T19:37:58.307Z,17.87
2018-11-05T19:40:25.992Z,17.73
2018-11-05T19:42:56.639Z,17.74
2018-11-05T19:45:24.562Z,17.89
2018-11-05T19:47:52.126Z,18.14
2018-11-05T19:50:22.785Z,18.31
2018-11-05T19:52:52.084Z,18.16
2018-11-05T19:55:21.045Z,18.14
2018-11-05T19:57:48.039Z,17.82
2018-11-05T20:00:16.061Z,17.82
2018-11-05T20:02:44.580Z,17.83
2018-11-05T20:05:12.000Z,18.03
2018-11-05T20:07:39.603Z,18.18
2018-11-05T20:10:07.750Z,18.25
2018-11-05T20:12:37.749Z,18.21
2018-11-05T20:15:05.100Z,18.14
2018-11-05T20:17:35.626Z,18.14
2018-11-05T20:20:03.069Z,17.91
2018-11-05T20:22:31.781Z,18.04
2018-11-05T20:24:59.056Z,18.20
2018-11-05T20:27:29.863Z,18.08
2018-11-05T20:29:58.051Z,17.74
2018-11-05T20:32:25.898Z,17.36
2018-11-05T20:34:53.408Z,17.40
2018-11-05T20:37:20.666Z,17.91
2018-11-05T20:39:49.182Z,17.69
2018-11-05T20:44:49.615Z,18.25
2018-11-05T20:47:16.483Z,18.39
2018-11-05T20:49:45.123Z,18.17
2018-11-05T20:52:12.516Z,17.73
2018-11-05T20:54:40.399Z,17.81
2018-11-05T20:57:11.642Z,18.01
2018-11-05T20:59:39.782Z,18.23
2018-11-05T21:02:08.461Z,18.36
2018-11-05T21:04:37.002Z,18.26
2018-11-05T21:07:06.366Z,17.97
2018-11-05T21:09:34.940Z,17.77
2018-11-05T21:12:03.544Z,17.69
2018-11-05T21:17:04.240Z,17.44
2018-11-05T21:19:32.699Z,17.68
2018-11-05T21:22:00.199Z,17.72
2018-11-05T21:24:29.169Z,17.92
2018-11-05T21:26:56.424Z,17.90
2018-11-05T21:29:24.581Z,17.76
2018-11-05T21:31:51.888Z,17.91
2018-11-05T21:34:20.091Z,18.22
2018-11-05T21:36:47.341Z,18.07
2018-11-05T21:39:14.485Z,18.11
2018-11-05T21:41:41.263Z,18.33
2018-11-05T21:44:09.190Z,18.17
2018-11-05T21:46:35.846Z,18.25
2018-11-05T21:49:03.731Z,18.19
2018-11-05T21:51:30.681Z,17.92
2018-11-05T21:53:58.447Z,17.88
2018-11-05T21:56:25.944Z,17.85
2018-11-05T21:58:54.051Z,17.81
2018-11-05T22:01:21.910Z,17.83
2018-11-05T22:03:48.922Z,17.84
2018-11-05T22:06:16.686Z,17.78
2018-11-05T22:08:44.589Z,17.32
2018-11-05T22:11:12.814Z,17.07
2018-11-05T22:13:39.824Z,17.17
2018-11-05T22:16:07.884Z,17.27
2018-11-05T22:18:35.369Z,17.57
2018-11-05T22:23:33.846Z,17.22
2018-11-05T22:26:00.992Z,16.96
2018-11-05T22:28:28.864Z,17.09
2018-11-05T22:30:57.657Z,17.34
2018-11-05T22:35:57.077Z,17.57
2018-11-05T22:38:25.583Z,17.67
2018-11-05T22:40:52.604Z,17.69
2018-11-05T22:43:19.558Z,17.72
2018-11-05T22:45:47.616Z,17.69
2018-11-05T22:48:15.679Z,17.62
2018-11-05T22:50:44.051Z,17.30
2018-11-05T22:53:11.240Z,17.16
2018-11-05T22:55:38.964Z,17.25
2018-11-05T22:58:07.556Z,17.48
2018-11-05T23:00:34.914Z,17.51
2018-11-05T23:03:02.817Z,17.38
2018-11-05T23:05:30.572Z,17.20
2018-11-05T23:07:59.358Z,17.08
2018-11-05T23:10:26.913Z,17.41
2018-11-05T23:12:54.317Z,17.36
2018-11-05T23:15:23.983Z,16.99
2018-11-05T23:17:53.100Z,17.08
2018-11-05T23:20:19.841Z,17.01
2018-11-05T23:22:47.788Z,16.95
2018-11-05T23:25:18.131Z,17.43
2018-11-05T23:27:47.197Z,17.46
2018-11-05T23:30:14.675Z,17.27
2018-11-05T23:32:41.822Z,17.57
2018-11-05T23:35:08.463Z,17.67
2018-11-05T23:37:35.945Z,17.81
2018-11-05T23:40:04.972Z,17.65
2018-11-05T23:42:34.736Z,17.35
2018-11-05T23:45:02.168Z,17.56
2018-11-05T23:47:30.452Z,17.55
2018-11-05T23:50:00.939Z,17.53
2018-11-05T23:52:28.249Z,17.69
2018-11-05T23:54:54.931Z,17.97
2018-11-05T23:57:24.797Z,17.87
2018-11-05T23:59:52.561Z,17.79
